createdAt,value
2022-08-05T00:00:00.717Z,69
2022-08-05T00:10:00.319Z,69
2022-08-05T00:20:03.236Z,69
2022-08-05T00:30:03.512Z,69
2022-08-05T00:40:00.623Z,70
2022-08-05T00:50:00.295Z,70
2022-08-05T01:00:00.337Z,70
2022-08-05T01:10:00.361Z,70
2022-08-05T01:20:03.522Z,70
2022-08-05T01:30:00.927Z,70
2022-08-05T01:40:00.436Z,70
2022-08-05T01:50:03.211Z,71
2022-08-05T02:00:00.308Z,70
2022-08-05T02:10:00.599Z,70
2022-08-05T02:20:00.577Z,71
2022-08-05T02:30:01.176Z,71
2022-08-05T02:40:00.282Z,71
2022-08-05T02:50:01.052Z,71
2022-08-05T03:00:01.582Z,71
2022-08-05T03:10:02.290Z,71
2022-08-05T03:20:01.108Z,71
2022-08-05T03:40:03.897Z,71
2022-08-05T03:50:01.251Z,71
2022-08-05T04:00:01.826Z,71
2022-08-05T04:10:03.327Z,71
2022-08-05T04:20:02.625Z,72
2022-08-05T04:30:04.026Z,72
2022-08-05T04:40:00.333Z,72
2022-08-05T04:50:11.004Z,73
2022-08-05T05:00:00.313Z,74
2022-08-05T05:10:03.072Z,74
2022-08-05T05:20:00.316Z,74
2022-08-05T05:30:05.343Z,74
2022-08-05T05:40:00.572Z,75
2022-08-05T05:50:01.932Z,75
2022-08-05T06:00:00.300Z,74
2022-08-05T06:10:09.812Z,74
2022-08-05T06:20:00.310Z,73
2022-08-05T06:30:18.041Z,72
2022-08-05T06:40:02.652Z,71
2022-08-05T06:50:05.489Z,70
2022-08-05T07:00:00.702Z,69
2022-08-05T07:10:03.792Z,67
2022-08-05T07:20:31.971Z,66
2022-08-05T07:30:22.693Z,62
2022-08-05T07:40:27.252Z,60
2022-08-05T07:50:06.760Z,59
2022-08-05T08:00:00.440Z,59
2022-08-05T08:10:01.560Z,56
2022-08-05T08:20:23.247Z,55
2022-08-05T08:30:20.550Z,52
2022-08-05T08:40:03.727Z,51
2022-08-05T08:50:22.725Z,50
2022-08-05T09:00:00.309Z,48
2022-08-05T09:10:01.947Z,45
2022-08-05T09:20:04.957Z,45
2022-08-05T09:30:06.620Z,45
2022-08-05T09:40:00.503Z,45
2022-08-05T09:50:03.425Z,45
2022-08-05T10:00:07.385Z,45
2022-08-05T10:50:20.994Z,44
2022-08-05T11:10:10.409Z,42
2022-08-05T11:20:16.908Z,42
2022-08-05T11:30:00.358Z,42
2022-08-05T11:50:01.801Z,42
2022-08-05T12:00:00.289Z,42
2022-08-05T12:10:09.716Z,43
2022-08-05T12:20:17.530Z,41
2022-08-05T12:30:03.568Z,42
2022-08-05T12:40:11.028Z,42
2022-08-05T12:50:06.518Z,42
2022-08-05T13:01:58.788Z,43
2022-08-05T13:10:01.349Z,43
2022-08-05T13:20:00.309Z,43
2022-08-05T13:30:33.179Z,43
2022-08-05T13:40:13.276Z,42
2022-08-05T13:50:05.057Z,41
2022-08-05T14:00:02.291Z,41
2022-08-05T14:10:00.714Z,41
2022-08-05T14:20:07.719Z,41
2022-08-05T14:30:01.547Z,41
2022-08-05T14:40:00.683Z,41
2022-08-05T14:50:14.217Z,42
2022-08-05T15:00:00.303Z,45
2022-08-05T15:10:03.454Z,46
2022-08-05T15:20:00.341Z,47
2022-08-05T15:30:00.261Z,48
2022-08-05T15:40:41.819Z,50
2022-08-05T15:50:00.665Z,52
2022-08-05T16:00:02.648Z,53
2022-08-05T16:10:00.295Z,55
2022-08-05T16:20:11.900Z,56
2022-08-05T16:30:00.305Z,57
2022-08-05T16:40:07.486Z,57
2022-08-05T16:50:00.700Z,58
2022-08-05T17:00:10.438Z,58
2022-08-05T17:10:02.906Z,59
2022-08-05T17:20:01.975Z,59
2022-08-05T17:30:03.009Z,60
2022-08-05T17:40:00.946Z,60
2022-08-05T17:50:11.070Z,60
2022-08-05T18:00:05.940Z,61
2022-08-05T18:10:08.847Z,61
2022-08-05T18:20:01.171Z,61
2022-08-05T18:30:00.315Z,61
2022-08-05T18:40:31.296Z,62
2022-08-05T18:50:00.619Z,62
2022-08-05T19:00:05.747Z,62
2022-08-05T19:10:01.426Z,63
2022-08-05T19:20:03.075Z,63
2022-08-05T19:30:02.979Z,64
2022-08-05T19:40:01.589Z,64
2022-08-05T19:50:00.372Z,64
2022-08-05T20:00:04.692Z,65
2022-08-05T20:10:00.306Z,65
2022-08-05T20:20:00.820Z,65
2022-08-05T20:30:02.012Z,65
2022-08-05T20:40:00.579Z,65
2022-08-05T20:50:02.533Z,66
2022-08-05T21:00:21.525Z,66
2022-08-05T21:10:01.208Z,66
2022-08-05T21:20:10.429Z,67
2022-08-05T21:30:02.203Z,67
2022-08-05T21:40:00.654Z,67
2022-08-05T21:50:02.080Z,67
2022-08-05T22:00:07.170Z,68
2022-08-05T22:10:00.387Z,68
2022-08-05T22:20:13.978Z,68
2022-08-05T22:30:00.356Z,68
2022-08-05T22:40:01.537Z,68
2022-08-05T22:50:18.808Z,68
2022-08-05T23:00:02.967Z,69
2022-08-05T23:10:02.800Z,69
2022-08-05T23:20:00.295Z,69
2022-08-05T23:30:00.325Z,69
2022-08-05T23:40:09.667Z,70
2022-08-05T23:50:01.075Z,70
